Time;durP1;ratioP1;P1;durP2;ratioP2;P2;SDS_P1;SDS_P2;PMS_P1;PMS_P2;Temp;Humidity;BMP_temperature;BMP_pressure;BME280_temperature;BME280_humidity;BME280_pressure;Samples;Min_cycle;Max_cycle;Signal;HPM_P1;HPM_P2
2021/03/22 00:00:19;;;;;;;4.07;2.47;;;;;;;18.61;52.66;102614.53;5057977;28;20029;-72
2021/03/22 00:02:45;;;;;;;5.65;2.63;;;;;;;18.61;52.60;102607.56;5064787;28;20056;-71
2021/03/22 00:05:12;;;;;;;6.70;3.25;;;;;;;18.56;52.86;102604.81;5063407;28;20068;-71
2021/03/22 00:07:37;;;;;;;5.85;3.10;;;;;;;18.62;52.77;102613.69;5057965;28;20029;-72
2021/03/22 00:10:04;;;;;;;5.88;2.90;;;;;;;18.57;52.61;102600.44;5083552;28;20460;-71
2021/03/22 00:12:29;;;;;;;5.68;3.13;;;;;;;18.59;52.57;102604.03;5063832;28;20045;-71
2021/03/22 00:14:55;;;;;;;4.78;3.28;;;;;;;18.59;52.42;102606.66;5050337;28;20446;-72
2021/03/22 00:17:20;;;;;;;8.40;2.97;;;;;;;18.63;52.45;102605.00;5064850;28;20020;-72
2021/03/22 00:19:45;;;;;;;4.18;2.80;;;;;;;18.55;52.50;102603.06;5062205;28;20076;-71
2021/03/22 00:22:11;;;;;;;4.55;2.67;;;;;;;18.61;52.44;102609.31;5079596;28;20446;-71
2021/03/22 00:24:36;;;;;;;4.38;3.08;;;;;;;18.56;52.22;102596.94;5060204;28;20040;-71
2021/03/22 00:27:02;;;;;;;4.85;2.78;;;;;;;18.54;52.28;102592.53;5063517;28;20071;-71
2021/03/22 00:29:27;;;;;;;5.50;2.58;;;;;;;18.57;52.32;102596.09;5066041;28;20132;-71
2021/03/22 00:31:52;;;;;;;5.95;2.97;;;;;;;18.51;52.38;102590.72;5060011;28;20072;-71
2021/03/22 00:34:18;;;;;;;5.50;3.50;;;;;;;18.56;52.33;102603.94;5067774;28;20089;-71
2021/03/22 00:36:43;;;;;;;11.77;3.95;;;;;;;18.54;52.46;102611.78;5047119;28;20032;-71
2021/03/22 00:39:08;;;;;;;4.47;2.60;;;;;;;18.54;52.31;102598.66;5067829;28;20489;-71
2021/03/22 00:41:34;;;;;;;5.85;2.97;;;;;;;18.43;52.25;102581.81;5069926;28;20033;-71
2021/03/22 00:43:59;;;;;;;4.82;3.10;;;;;;;18.49;52.23;102592.44;5077130;28;20044;-71
2021/03/22 00:46:24;;;;;;;5.47;2.72;;;;;;;18.54;52.20;102601.28;5062936;28;20556;-71
2021/03/22 00:48:50;;;;;;;4.35;2.45;;;;;;;18.54;52.14;102608.25;5068626;28;20028;-71
2021/03/22 00:51:15;;;;;;;7.13;4.07;;;;;;;18.51;52.17;102598.59;5067183;28;20021;-71
2021/03/22 00:53:40;;;;;;;6.95;3.30;;;;;;;18.52;51.98;102602.97;5058692;28;20029;-71
2021/03/22 00:56:06;;;;;;;5.18;2.95;;;;;;;18.49;52.21;102602.91;5050239;28;20028;-72
2021/03/22 00:58:32;;;;;;;4.38;2.80;;;;;;;18.52;52.13;102612.56;5065055;28;20060;-71
2021/03/22 01:01:00;;;;;;;5.65;2.90;;;;;;;18.50;52.16;102602.06;5061496;28;20044;-71
2021/03/22 01:03:31;;;;;;;4.55;2.50;;;;;;;18.48;52.33;102593.28;5071955;28;20024;-71
2021/03/22 01:05:59;;;;;;;4.30;2.90;;;;;;;18.49;52.06;102602.91;5069998;28;20467;-71
2021/03/22 01:08:27;;;;;;;4.18;2.78;;;;;;;18.49;52.20;102597.66;5063024;28;20036;-72
2021/03/22 01:10:59;;;;;;;5.03;3.20;;;;;;;18.48;52.08;102600.25;5056459;28;20056;-71
2021/03/22 01:13:34;;;;;;;5.25;2.92;;;;;;;18.49;52.26;102604.63;5060592;28;20447;-72
2021/03/22 01:16:01;;;;;;;5.68;2.75;;;;;;;18.48;52.20;102600.25;5073065;28;20413;-71
2021/03/22 01:18:32;;;;;;;4.35;2.72;;;;;;;18.48;52.05;102602.88;5068564;28;20004;-72
2021/03/22 01:21:04;;;;;;;4.60;2.90;;;;;;;18.46;52.08;102594.97;5057773;28;20479;-71
2021/03/22 01:23:29;;;;;;;6.00;2.80;;;;;;;18.40;52.22;102589.59;5062354;28;20029;-71
2021/03/22 01:25:55;;;;;;;9.18;3.78;;;;;;;18.44;52.19;102588.81;5062744;28;20079;-71
2021/03/22 01:28:20;;;;;;;6.78;2.60;;;;;;;18.46;52.00;102594.97;5074268;28;20033;-72
2021/03/22 01:30:53;;;;;;;7.38;3.08;;;;;;;18.43;51.88;102587.06;5064033;28;20039;-72
2021/03/22 01:33:24;;;;;;;6.13;3.38;;;;;;;18.46;51.98;102588.84;5062174;28;20112;-71
2021/03/22 01:35:51;;;;;;;5.30;3.42;;;;;;;18.40;51.79;102580.88;5067887;28;20036;-71
2021/03/22 01:38:17;;;;;;;5.15;2.75;;;;;;;18.37;52.14;102576.44;5066551;28;20017;-71
2021/03/22 01:41:04;;;;;;;4.70;3.22;;;;;;;18.39;51.97;102571.22;5057798;28;20035;-71
2021/03/22 01:43:39;;;;;;;7.07;2.47;;;;;;;18.45;51.83;102571.34;5071796;28;20035;-71
2021/03/22 01:46:05;;;;;;;5.07;3.40;;;;;;;18.42;51.76;102573.94;5072632;28;20074;-72
2021/03/22 01:48:31;;;;;;;5.93;3.20;;;;;;;18.34;52.07;102555.41;5076698;28;20033;-71
2021/03/22 01:50:56;;;;;;;6.65;3.17;;;;;;;18.41;52.08;102573.03;5083959;28;20078;-72
2021/03/22 01:53:21;;;;;;;3.70;2.60;;;;;;;18.41;51.91;102574.78;5067871;28;20039;-71
2021/03/22 01:55:47;;;;;;;3.85;2.40;;;;;;;18.39;51.94;102572.13;5062358;28;20033;-71
2021/03/22 01:58:12;;;;;;;4.65;2.50;;;;;;;18.39;51.87;102571.22;5053828;28;20141;-71
2021/03/22 02:00:39;;;;;;;5.20;2.92;;;;;;;18.41;51.68;102574.78;5067362;28;20117;-71
2021/03/22 02:03:18;;;;;;;5.82;2.75;;;;;;;18.35;52.02;102556.28;5066762;28;20029;-71
2021/03/22 02:05:48;;;;;;;5.40;3.40;;;;;;;18.41;52.09;102564.31;5068709;28;20033;-72
2021/03/22 02:08:18;;;;;;;7.22;3.88;;;;;;;18.39;52.03;102563.38;5066818;28;20032;-72
2021/03/22 02:10:44;;;;;;;4.00;2.67;;;;;;;18.36;52.02;102558.06;5064400;28;20064;-71
2021/03/22 02:13:11;;;;;;;3.90;2.40;;;;;;;18.37;51.97;102563.34;5023873;28;20033;-72
2021/03/22 02:15:39;;;;;;;5.38;3.05;;;;;;;18.35;52.06;102561.53;5050330;28;20028;-71
2021/03/22 02:18:18;;;;;;;3.35;2.30;;;;;;;18.32;51.95;102562.34;5048047;28;20013;-71
2021/03/22 02:21:21;;;;;;;3.40;2.58;;;;;;;18.37;52.18;102560.72;5034898;28;20199;-72
2021/03/22 02:24:28;;;;;;;4.63;2.70;;;;;;;18.37;52.01;102555.47;5043014;28;20119;-71
2021/03/22 02:27:17;;;;;;;5.95;2.97;;;;;;;18.37;51.81;102550.25;5034616;28;20510;-71
2021/03/22 02:30:12;;;;;;;6.88;3.03;;;;;;;18.37;51.82;102557.22;5038880;28;20548;-71
2021/03/22 02:33:05;;;;;;;6.72;3.42;;;;;;;18.31;52.03;102549.19;5043638;28;20090;-71
2021/03/22 02:35:38;;;;;;;4.57;2.63;;;;;;;18.34;51.83;102557.13;5041744;28;20029;-71
2021/03/22 02:38:14;;;;;;;4.60;2.60;;;;;;;18.37;51.90;102559.84;5050879;28;20025;-71
2021/03/22 02:40:49;;;;;;;4.97;2.78;;;;;;;18.35;51.99;102554.56;5050664;28;20479;-71
2021/03/22 02:43:14;;;;;;;5.53;2.63;;;;;;;18.34;52.04;102550.16;5044270;28;20090;-72
2021/03/22 02:45:43;;;;;;;4.45;2.58;;;;;;;18.29;52.11;102541.34;5046233;28;20045;-71
2021/03/22 02:48:17;;;;;;;3.95;2.38;;;;;;;18.34;51.90;102557.13;5027652;28;20033;-71
2021/03/22 02:50:43;;;;;;;4.10;2.85;;;;;;;18.29;51.87;102545.69;5044995;28;20016;-71
2021/03/22 02:53:32;;;;;;;4.90;2.85;;;;;;;18.32;51.92;102554.47;5046542;28;20494;-71
2021/03/22 02:56:40;;;;;;;3.25;2.47;;;;;;;18.24;51.90;102536.81;5048784;28;20032;-71
2021/03/22 02:59:16;;;;;;;7.45;3.08;;;;;;;18.32;51.88;102549.25;4973251;28;20069;-71
2021/03/22 03:01:53;;;;;;;7.38;2.50;;;;;;;18.30;51.83;102543.09;5014637;28;20123;-71
2021/03/22 03:04:19;;;;;;;6.03;3.30;;;;;;;18.28;51.96;102544.81;5036050;28;20083;-73
2021/03/22 03:06:52;;;;;;;4.72;2.20;;;;;;;18.31;51.78;102549.19;5030760;28;20030;-71
2021/03/22 03:09:22;;;;;;;4.15;2.67;;;;;;;18.24;52.00;102539.44;5048151;28;20068;-71
2021/03/22 03:11:47;;;;;;;5.68;2.47;;;;;;;18.28;51.92;102550.03;5057408;28;20072;-71
2021/03/22 03:14:13;;;;;;;4.40;2.13;;;;;;;18.25;51.85;102536.88;5058091;28;20056;-71
2021/03/22 03:16:38;;;;;;;5.40;2.83;;;;;;;18.28;51.91;102544.81;5062101;28;20020;-71
2021/03/22 03:19:04;;;;;;;5.13;2.50;;;;;;;18.26;51.69;102545.63;5046742;28;20033;-72
2021/03/22 03:21:29;;;;;;;6.57;3.17;;;;;;;18.28;51.81;102555.28;5064026;28;20082;-71
2021/03/22 03:23:55;;;;;;;5.07;2.70;;;;;;;18.28;51.68;102551.78;5069370;28;20055;-71
2021/03/22 03:26:21;;;;;;;3.50;1.92;;;;;;;18.28;51.86;102551.78;5068970;28;20032;-71
2021/03/22 03:28:46;;;;;;;5.40;3.28;;;;;;;18.28;51.63;102551.78;5057488;28;20039;-71
2021/03/22 03:31:12;;;;;;;3.97;2.00;;;;;;;18.24;51.80;102544.69;5059185;28;20386;-71
2021/03/22 03:33:38;;;;;;;4.43;2.72;;;;;;;18.25;51.87;102552.59;5056094;28;20041;-71
2021/03/22 03:36:03;;;;;;;4.65;3.10;;;;;;;18.21;51.74;102542.88;5061354;28;20040;-71
2021/03/22 03:38:29;;;;;;;4.22;2.20;;;;;;;18.23;51.70;102545.53;5070020;28;20025;-74
2021/03/22 03:40:54;;;;;;;5.20;2.70;;;;;;;18.27;51.81;102555.25;5057105;28;20081;-74
2021/03/22 03:43:21;;;;;;;5.03;2.85;;;;;;;18.26;51.79;102550.84;5057213;28;20032;-74
2021/03/22 03:45:50;;;;;;;3.90;2.15;;;;;;;18.19;51.66;102544.56;5063000;28;20033;-74
2021/03/22 03:48:24;;;;;;;3.88;2.22;;;;;;;18.26;51.66;102553.47;5062294;28;20032;-74
2021/03/22 03:50:52;;;;;;;5.03;2.90;;;;;;;18.12;51.84;102540.06;5061157;28;20059;-74
2021/03/22 03:53:17;;;;;;;3.40;2.13;;;;;;;18.20;51.73;102549.84;5061314;28;20028;-75
2021/03/22 03:55:43;;;;;;;5.18;2.83;;;;;;;18.24;51.92;102555.16;5072873;28;20024;-75
2021/03/22 03:58:09;;;;;;;5.57;3.25;;;;;;;18.23;51.70;102551.66;5059859;28;20471;-74
2021/03/22 04:00:46;;;;;;;4.13;2.47;;;;;;;18.25;51.66;102554.31;5058532;28;20031;-74
2021/03/22 04:03:28;;;;;;;3.08;2.10;;;;;;;18.14;51.84;102543.59;5069758;28;20101;-74
2021/03/22 04:06:23;;;;;;;5.63;2.55;;;;;;;18.22;51.75;102565.59;5066101;28;20543;-71
2021/03/22 04:08:58;;;;;;;5.53;2.38;;;;;;;18.14;51.74;102543.59;5060753;28;20068;-71
2021/03/22 04:11:28;;;;;;;4.07;1.92;;;;;;;18.21;51.64;102566.44;5053002;28;20522;-73
2021/03/22 04:13:54;;;;;;;3.95;2.17;;;;;;;18.11;51.81;102547.03;5051947;28;20025;-71
2021/03/22 04:16:21;;;;;;;6.32;2.40;;;;;;;18.14;51.76;102541.88;5049836;28;20548;-74
2021/03/22 04:18:46;;;;;;;4.18;2.38;;;;;;;18.11;51.87;102539.16;5051633;28;20024;-75
2021/03/22 04:21:15;;;;;;;6.70;2.85;;;;;;;18.19;51.66;102555.03;5033346;28;20025;-74
2021/03/22 04:23:42;;;;;;;3.78;2.47;;;;;;;18.20;51.93;102554.19;5046989;28;20033;-75
2021/03/22 04:26:09;;;;;;;7.05;2.90;;;;;;;18.19;51.63;102565.50;5051319;28;20360;-75
2021/03/22 04:28:34;;;;;;;5.65;2.88;;;;;;;18.15;51.79;102556.72;5040343;28;20144;-77
2021/03/22 04:31:00;;;;;;;5.57;2.22;;;;;;;18.19;51.87;102560.28;5035126;28;20052;-75
2021/03/22 04:33:26;;;;;;;2.67;1.77;;;;;;;18.17;51.59;102565.50;5027701;28;20033;-71
2021/03/22 04:35:51;;;;;;;5.63;2.00;;;;;;;18.18;51.78;102568.97;5054314;28;20108;-71
2021/03/22 04:38:17;;;;;;;3.88;2.67;;;;;;;18.17;51.86;102565.50;5052450;28;20348;-71
2021/03/22 04:40:43;;;;;;;4.13;2.15;;;;;;;18.16;51.53;102563.75;5039102;28;20529;-73
2021/03/22 04:43:09;;;;;;;6.13;3.00;;;;;;;18.12;51.37;102559.25;5024667;28;20061;-71
2021/03/22 04:45:34;;;;;;;5.00;2.33;;;;;;;18.16;51.79;102562.84;5030832;28;20025;-71
2021/03/22 04:48:00;;;;;;;3.72;1.90;;;;;;;18.10;51.52;102555.72;5049363;28;20033;-73
2021/03/22 04:50:28;;;;;;;4.03;2.35;;;;;;;18.15;51.69;102567.19;5032848;28;20091;-73
2021/03/22 04:52:54;;;;;;;3.65;2.60;;;;;;;18.19;51.67;102561.16;5043615;28;20029;-73
2021/03/22 04:55:21;;;;;;;3.72;2.03;;;;;;;18.26;51.50;102554.34;5046932;28;20084;-71
2021/03/22 04:57:47;;;;;;;2.92;1.83;;;;;;;18.19;51.45;102534.09;5041573;28;20021;-71
2021/03/22 05:00:20;;;;;;;3.65;1.85;;;;;;;18.35;51.08;102565.03;5023939;28;20036;-72
2021/03/22 05:02:46;;;;;;;4.20;1.95;;;;;;;18.26;51.40;102551.72;5033301;28;20033;-71
2021/03/22 05:05:12;;;;;;;4.22;2.15;;;;;;;18.39;51.27;102560.75;5033574;28;20029;-72
2021/03/22 05:07:37;;;;;;;4.80;2.28;;;;;;;18.39;51.29;102559.03;5031419;28;20082;-71
2021/03/22 05:10:06;;;;;;;3.95;2.03;;;;;;;18.45;51.27;102561.75;5012528;28;20402;-73
2021/03/22 05:12:31;;;;;;;3.63;2.15;;;;;;;18.44;51.20;102567.84;5080351;28;20189;-71
2021/03/22 05:14:57;;;;;;;3.05;1.95;;;;;;;18.47;51.20;102559.19;5070327;28;20032;-71
2021/03/22 05:17:22;;;;;;;3.08;1.58;;;;;;;18.51;51.22;102564.53;5078877;28;20021;-71
2021/03/22 05:19:47;;;;;;;2.33;1.50;;;;;;;18.46;51.22;102563.53;5050581;28;20054;-71
2021/03/22 05:22:13;;;;;;;2.28;1.23;;;;;;;18.49;51.36;102576.72;5076911;28;20033;-71
2021/03/22 05:24:38;;;;;;;3.22;1.65;;;;;;;18.57;51.22;102575.13;5067016;28;20032;-71
2021/03/22 05:27:04;;;;;;;3.00;1.70;;;;;;;18.59;51.16;102572.59;5070218;28;20033;-72
2021/03/22 05:29:29;;;;;;;4.30;2.20;;;;;;;18.51;51.08;102574.13;5064055;28;20124;-71
2021/03/22 05:31:55;;;;;;;3.88;2.25;;;;;;;18.52;51.31;102578.53;5061339;28;21843;-71
2021/03/22 05:34:23;;;;;;;3.38;2.08;;;;;;;18.64;51.21;102591.03;5056874;28;20430;-72
2021/03/22 05:36:49;;;;;;;2.20;1.48;;;;;;;18.65;50.96;102588.47;5065549;28;20033;-72
2021/03/22 05:39:16;;;;;;;4.30;1.52;;;;;;;18.50;51.09;102557.53;5072118;28;20040;-72
2021/03/22 05:42:07;;;;;;;2.50;1.33;;;;;;;18.71;51.06;102585.94;5060164;28;20031;-71
2021/03/22 05:44:45;;;;;;;3.97;2.25;;;;;;;18.83;51.00;102595.81;5075476;28;20031;-70
2021/03/22 05:47:22;;;;;;;2.95;1.42;;;;;;;18.79;50.75;102596.63;5062580;28;20536;-71
2021/03/22 05:50:02;;;;;;;2.45;1.55;;;;;;;18.82;50.85;102600.19;5052331;28;20386;-74
2021/03/22 05:52:59;;;;;;;4.28;1.65;;;;;;;18.91;50.92;102604.75;5053599;28;20479;-73
2021/03/22 05:55:33;;;;;;;3.15;1.48;;;;;;;18.90;50.63;102601.22;5066492;28;20025;-73
2021/03/22 05:58:36;;;;;;;5.25;1.65;;;;;;;18.89;50.93;102612.56;5069538;28;20020;-75
2021/03/22 06:01:22;;;;;;;3.42;1.83;;;;;;;18.87;50.74;102608.13;5050476;28;20062;-74
2021/03/22 06:03:53;;;;;;;3.55;1.48;;;;;;;18.91;50.50;102612.59;5047682;28;20491;-74
2021/03/22 06:06:29;;;;;;;3.20;1.75;;;;;;;18.90;50.83;102614.34;5057861;28;20028;-73
2021/03/22 06:09:01;;;;;;;4.78;2.03;;;;;;;18.96;50.68;102620.56;5069330;28;20028;-73
2021/03/22 06:11:32;;;;;;;2.15;1.45;;;;;;;18.97;50.63;102624.94;5051726;28;20124;-74
2021/03/22 06:14:14;;;;;;;5.05;1.50;;;;;;;18.98;50.60;102613.59;5037839;28;20060;-73
2021/03/22 06:16:47;;;;;;;4.28;1.80;;;;;;;18.87;50.69;102601.16;5050964;28;20028;-74
2021/03/22 06:19:16;;;;;;;4.68;2.22;;;;;;;18.98;50.74;102621.47;5037211;28;20013;-74
2021/03/22 06:21:46;;;;;;;7.88;2.58;;;;;;;18.96;50.61;102618.81;5047493;28;20106;-76
2021/03/22 06:24:18;;;;;;;9.07;3.05;;;;;;;18.97;50.61;102625.81;5034088;28;20029;-78
2021/03/22 06:26:49;;;;;;;5.72;2.10;;;;;;;18.92;50.88;102624.88;5035979;28;20057;-77
2021/03/22 06:29:44;;;;;;;4.68;2.13;;;;;;;18.91;50.75;102605.63;5051347;28;20029;-78
2021/03/22 06:32:32;;;;;;;5.43;2.70;;;;;;;19.02;50.80;102631.19;5025633;28;20037;-72
2021/03/22 06:34:58;;;;;;;7.35;2.35;;;;;;;18.99;51.04;102633.72;5034671;28;20021;-75
2021/03/22 06:37:29;;;;;;;6.50;3.00;;;;;;;18.99;51.16;102626.75;5023510;28;20568;-72
2021/03/22 06:40:14;;;;;;;16.55;3.15;;;;;;;19.03;50.96;102631.22;5046834;28;20551;-70
2021/03/22 06:42:42;;;;;;;7.57;2.72;;;;;;;19.00;51.17;102625.00;5041628;28;20035;-71
2021/03/22 06:45:46;;;;;;;3.85;2.95;;;;;;;19.03;51.18;102627.72;5042772;28;20029;-70
2021/03/22 06:48:18;;;;;;;8.45;3.40;;;;;;;19.06;51.12;102630.41;5033419;28;20472;-72
2021/03/22 06:50:44;;;;;;;8.57;2.88;;;;;;;19.02;51.24;102625.94;5035715;28;20036;-71
2021/03/22 06:53:10;;;;;;;6.25;2.47;;;;;;;19.02;51.29;102625.94;5030890;28;20390;-71
2021/03/22 06:55:41;;;;;;;6.32;2.88;;;;;;;19.08;51.22;102626.09;5013902;28;20108;-71
2021/03/22 06:58:24;;;;;;;6.75;2.72;;;;;;;19.08;51.41;102626.09;5023299;28;20477;-71
2021/03/22 07:00:49;;;;;;;8.27;2.87;;;;;;;19.04;51.36;102626.84;5023544;28;20029;-72
2021/03/22 07:03:25;;;;;;;6.95;2.65;;;;;;;19.10;51.19;102621.72;5018063;28;20029;-72
2021/03/22 07:05:51;;;;;;;6.60;3.08;;;;;;;19.12;51.16;102627.88;5032910;28;20037;-71
2021/03/22 07:08:36;;;;;;;8.40;2.53;;;;;;;19.12;51.10;102627.88;5011075;28;20033;-72
2021/03/22 07:11:01;;;;;;;5.50;2.47;;;;;;;19.13;51.09;102625.31;5035035;28;20072;-72
2021/03/22 07:13:34;;;;;;;4.65;2.20;;;;;;;19.12;51.22;102622.66;5019045;28;20064;-72
2021/03/22 07:16:05;;;;;;;6.18;2.03;;;;;;;19.15;51.06;102628.84;5025208;28;20024;-72
2021/03/22 07:18:32;;;;;;;6.53;2.35;;;;;;;19.09;51.14;102620.84;5029755;28;20112;-72
2021/03/22 07:20:57;;;;;;;9.80;2.63;;;;;;;19.13;50.91;102627.94;5006034;28;20033;-71
2021/03/22 07:23:44;;;;;;;6.18;2.80;;;;;;;19.17;51.06;102637.63;5030908;28;20510;-72
2021/03/22 07:26:09;;;;;;;3.95;2.10;;;;;;;19.14;51.14;102632.31;5019761;28;20113;-72
2021/03/22 07:28:59;;;;;;;4.47;2.45;;;;;;;19.17;51.08;102636.75;5030776;28;20112;-72
2021/03/22 07:31:46;;;;;;;5.97;2.05;;;;;;;19.21;51.06;102630.72;5025803;28;20033;-73
2021/03/22 07:34:14;;;;;;;5.78;3.33;;;;;;;19.20;50.97;102627.22;5024799;28;20030;-72
2021/03/22 07:36:49;;;;;;;6.28;2.50;;;;;;;19.18;51.11;102636.78;5019899;28;20057;-73
2021/03/22 07:39:30;;;;;;;4.45;2.00;;;;;;;19.21;51.03;102638.59;5023187;28;20441;-73
2021/03/22 07:42:05;;;;;;;3.38;1.83;;;;;;;19.15;51.11;102625.34;5038101;28;20027;-73
2021/03/22 07:45:10;;;;;;;4.57;2.10;;;;;;;19.19;50.94;102643.81;5031171;28;20017;-73
2021/03/22 07:48:06;;;;;;;3.55;1.90;;;;;;;19.22;51.13;102640.34;5033109;28;20483;-72
2021/03/22 07:50:47;;;;;;;4.32;2.40;;;;;;;19.19;50.98;102633.31;5029419;28;20029;-73
2021/03/22 07:53:22;;;;;;;4.18;1.80;;;;;;;19.23;50.87;102648.25;5031628;28;20048;-73
2021/03/22 07:55:54;;;;;;;3.33;1.95;;;;;;;19.24;51.00;102646.50;5025631;28;20035;-73
2021/03/22 07:58:53;;;;;;;2.85;2.13;;;;;;;19.29;50.62;102647.50;5008658;28;20109;-73
2021/03/22 08:01:41;;;;;;;5.45;2.60;;;;;;;19.26;50.84;102648.31;5013349;28;20025;-72
2021/03/22 08:04:25;;;;;;;3.45;1.83;;;;;;;19.20;50.83;102640.34;5023862;28;20384;-73
2021/03/22 08:07:23;;;;;;;3.90;1.80;;;;;;;19.15;50.69;102634.09;5029093;28;20025;-72
2021/03/22 08:10:07;;;;;;;2.53;1.40;;;;;;;19.19;50.70;102654.28;5024115;28;20060;-73
2021/03/22 08:12:32;;;;;;;;;;;;;;;19.22;50.84;102656.06;5039686;28;20051;-73
2021/03/22 08:15:17;;;;;;;2.28;1.42;;;;;;;19.24;50.43;102660.50;5060571;28;20075;-72
2021/03/22 08:17:55;;;;;;;4.80;2.20;;;;;;;19.16;50.68;102651.59;5047464;28;20479;-73
2021/03/22 08:20:29;;;;;;;3.15;1.92;;;;;;;19.08;50.85;102649.69;5041310;28;20083;-73
2021/03/22 08:23:08;;;;;;;4.35;2.13;;;;;;;19.14;50.96;102671.66;5046404;28;20049;-72
2021/03/22 08:25:48;;;;;;;3.60;1.88;;;;;;;19.06;50.89;102656.63;5052480;28;20029;-72
2021/03/22 08:28:43;;;;;;;4.05;1.40;;;;;;;19.09;50.92;102669.78;5063233;28;20052;-72
2021/03/22 08:31:17;;;;;;;5.10;2.40;;;;;;;19.05;50.81;102668.84;5050080;28;20045;-73
2021/03/22 08:34:03;;;;;;;3.75;2.33;;;;;;;19.06;51.20;102677.59;5047395;28;20091;-73
2021/03/22 08:36:47;;;;;;;3.83;1.92;;;;;;;19.05;50.70;102666.22;5051918;28;20039;-71
2021/03/22 08:39:28;;;;;;;2.35;1.08;;;;;;;19.05;50.71;102674.09;5066174;28;20028;-73
2021/03/22 08:42:36;;;;;;;3.55;1.52;;;;;;;18.99;50.57;102658.22;5056851;28;20025;-72
2021/03/22 08:45:36;;;;;;;2.30;1.45;;;;;;;19.06;50.72;102672.34;5013479;28;20033;-73
2021/03/22 08:48:21;;;;;;;3.97;1.65;;;;;;;18.99;50.84;102660.84;5013329;28;20508;-72
2021/03/22 08:50:49;;;;;;;3.38;1.33;;;;;;;19.07;50.75;102668.88;5031088;28;20128;-72
2021/03/22 08:53:20;;;;;;;2.88;1.83;;;;;;;19.11;50.42;102673.31;5043050;28;20068;-72
2021/03/22 08:55:59;;;;;;;3.78;1.67;;;;;;;19.11;50.34;102661.09;5056667;28;20025;-73
2021/03/22 08:58:54;;;;;;;2.28;1.10;;;;;;;19.15;50.43;102672.53;5054158;28;20013;-72
2021/03/22 09:01:35;;;;;;;1.80;1.08;;;;;;;19.11;50.23;102668.06;5051127;28;20182;-74
2021/03/22 09:04:19;;;;;;;2.83;1.30;;;;;;;19.04;50.54;102668.81;5058071;28;20361;-73
2021/03/22 09:07:21;;;;;;;4.05;1.17;;;;;;;19.01;50.65;102671.34;5053901;28;20038;-72
2021/03/22 09:09:48;;;;;;;2.10;1.40;;;;;;;18.94;50.72;102656.38;5055014;28;20025;-73
2021/03/22 09:12:33;;;;;;;1.80;1.05;;;;;;;18.87;50.62;102650.97;5045323;28;20321;-72
2021/03/22 09:15:10;;;;;;;2.60;1.50;;;;;;;18.94;50.65;102669.47;5052902;28;20039;-72
2021/03/22 09:17:48;;;;;;;2.50;1.60;;;;;;;18.94;50.69;102678.22;5049465;28;20024;-73
2021/03/22 09:20:28;;;;;;;2.88;1.20;;;;;;;18.93;50.75;102676.44;5036471;28;20135;-72
2021/03/22 09:23:04;;;;;;;2.42;1.13;;;;;;;18.77;50.72;102643.75;5050236;28;20025;-72
2021/03/22 09:26:22;;;;;;;3.28;1.75;;;;;;;18.96;50.60;102673.88;5040021;28;20390;-73
2021/03/22 09:28:58;;;;;;;2.25;1.08;;;;;;;18.92;50.58;102672.06;5029109;28;20169;-73
2021/03/22 09:31:25;;;;;;;3.13;1.85;;;;;;;18.96;50.47;102684.34;5034951;28;20052;-72
2021/03/22 09:34:05;;;;;;;3.15;1.35;;;;;;;18.97;50.26;102680.88;5052345;28;20433;-72
2021/03/22 09:36:42;;;;;;;2.47;1.40;;;;;;;18.96;50.36;102681.72;5040664;28;20021;-73
2021/03/22 09:39:45;;;;;;;1.77;1.00;;;;;;;18.94;50.45;102674.72;5044874;28;20025;-73
2021/03/22 09:42:10;;;;;;;2.23;1.40;;;;;;;18.95;50.54;102677.38;5050396;28;20041;-73
2021/03/22 09:44:56;;;;;;;1.73;1.20;;;;;;;18.90;50.46;102672.00;5064195;28;20033;-73
2021/03/22 09:47:28;;;;;;;2.45;1.40;;;;;;;18.92;50.37;102688.66;5062922;28;20536;-73
2021/03/22 09:50:00;;;;;;;2.20;1.40;;;;;;;18.91;50.30;102697.38;5066902;28;20490;-72
2021/03/22 09:52:31;;;;;;;2.50;1.33;;;;;;;18.74;50.63;102662.03;5057297;28;20029;-72
2021/03/22 09:54:58;;;;;;;1.67;1.15;;;;;;;18.89;50.45;102698.19;5041541;28;20102;-72
2021/03/22 09:57:35;;;;;;;2.22;1.27;;;;;;;18.87;50.55;102695.53;5045540;28;20028;-72
2021/03/22 10:00:23;;;;;;;3.17;1.60;;;;;;;18.84;50.67;102698.06;5046844;28;20024;-73
2021/03/22 10:02:54;;;;;;;2.30;1.35;;;;;;;18.82;50.45;102696.28;5048537;28;20108;-73
2021/03/22 10:05:29;;;;;;;2.10;1.15;;;;;;;18.80;50.50;102683.16;5046379;28;20056;-73
2021/03/22 10:07:55;;;;;;;1.98;1.13;;;;;;;18.84;50.13;102692.84;5043951;28;20033;-73
2021/03/22 10:10:28;;;;;;;3.30;1.33;;;;;;;18.83;50.44;102688.44;5051258;28;20032;-73
2021/03/22 10:13:06;;;;;;;1.65;1.20;;;;;;;18.79;50.52;102689.25;5015613;28;20026;-73
2021/03/22 10:15:49;;;;;;;2.53;1.63;;;;;;;18.75;50.39;102687.38;5029138;28;20029;-73
2021/03/22 10:18:30;;;;;;;2.35;1.13;;;;;;;18.76;50.34;102688.28;5031648;28;20472;-73
2021/03/22 10:21:10;;;;;;;2.47;1.42;;;;;;;18.79;50.59;102702.34;5033218;28;20021;-73
2021/03/22 10:23:47;;;;;;;1.70;1.20;;;;;;;18.73;50.28;102677.72;5033465;28;20029;-73
2021/03/22 10:26:21;;;;;;;2.20;1.25;;;;;;;18.79;50.12;102686.63;5014047;28;20041;-73
2021/03/22 10:28:47;;;;;;;1.75;1.05;;;;;;;18.76;50.61;102689.16;5017294;28;20022;-73
2021/03/22 10:31:22;;;;;;;1.95;0.90;;;;;;;18.66;50.32;102674.09;5014485;28;20041;-73
2021/03/22 10:33:57;;;;;;;1.80;1.10;;;;;;;18.76;50.41;102690.91;5033400;28;20082;-73
2021/03/22 10:36:29;;;;;;;2.92;1.48;;;;;;;18.71;50.40;102677.69;5019833;28;20108;-73
2021/03/22 10:38:56;;;;;;;2.67;1.38;;;;;;;18.69;50.20;102671.53;5031904;28;20458;-73
2021/03/22 10:41:32;;;;;;;4.22;1.02;;;;;;;18.80;50.13;102679.66;5015926;28;20029;-72
2021/03/22 10:44:13;;;;;;;1.63;1.10;;;;;;;18.81;50.36;102682.31;5027254;28;20030;-73
2021/03/22 10:46:39;;;;;;;1.95;1.20;;;;;;;18.82;50.28;102696.28;5032433;28;20136;-72
2021/03/22 10:49:25;;;;;;;2.58;1.20;;;;;;;18.88;50.38;102702.56;5018652;28;20543;-72
2021/03/22 10:51:53;;;;;;;2.03;1.10;;;;;;;18.99;50.20;102704.53;5027373;28;20030;-72
2021/03/22 10:54:21;;;;;;;2.35;1.70;;;;;;;19.03;50.00;102706.38;5029150;28;20028;-73
2021/03/22 10:56:53;;;;;;;2.33;1.20;;;;;;;19.01;49.98;102708.94;5012470;28;20395;-72
2021/03/22 10:59:24;;;;;;;3.20;1.48;;;;;;;19.02;50.31;102688.88;5029672;28;20033;-72
2021/03/22 11:01:52;;;;;;;1.55;0.85;;;;;;;19.16;50.08;102698.81;5031566;28;20740;-71
2021/03/22 11:04:25;;;;;;;2.38;0.90;;;;;;;19.17;49.96;102700.59;5032543;28;20037;-73
2021/03/22 11:06:51;;;;;;;1.40;1.10;;;;;;;19.16;49.80;102692.69;5013448;28;20034;-72
2021/03/22 11:09:20;;;;;;;2.95;1.13;;;;;;;19.28;49.79;102692.94;5029292;28;20098;-72
2021/03/22 11:11:46;;;;;;;1.27;0.80;;;;;;;19.32;49.61;102693.91;5023196;28;20084;-72
2021/03/22 11:14:16;;;;;;;3.08;0.90;;;;;;;19.28;49.74;102693.81;5050948;28;20075;-72
2021/03/22 11:16:43;;;;;;;1.70;1.15;;;;;;;19.37;49.81;102708.84;5044693;28;20108;-72
2021/03/22 11:19:27;;;;;;;1.52;1.23;;;;;;;19.40;49.69;102702.78;5047862;28;20035;-72
2021/03/22 11:21:55;;;;;;;1.65;0.73;;;;;;;19.42;49.75;102696.72;5042068;28;20017;-72
2021/03/22 11:24:39;;;;;;;2.25;1.27;;;;;;;19.44;49.65;102705.53;5053644;28;20148;-72
2021/03/22 11:27:08;;;;;;;1.42;0.93;;;;;;;19.45;49.75;102691.56;5043222;28;20567;-72
2021/03/22 11:29:45;;;;;;;1.35;0.80;;;;;;;19.43;49.61;102703.75;5044736;28;20467;-72
2021/03/22 11:32:17;;;;;;;1.30;1.00;;;;;;;19.35;49.63;102688.69;5043422;28;20486;-72
2021/03/22 11:34:44;;;;;;;1.30;0.90;;;;;;;19.44;49.65;102702.91;5052946;28;20021;-71
2021/03/22 11:37:21;;;;;;;1.38;0.80;;;;;;;19.48;49.62;102704.72;5067011;28;20083;-72
2021/03/22 11:40:03;;;;;;;1.55;0.98;;;;;;;19.49;49.56;102710.88;5048511;28;20029;-72
2021/03/22 11:42:50;;;;;;;2.35;1.15;;;;;;;19.43;49.84;102705.50;5044221;28;20467;-72
2021/03/22 11:45:27;;;;;;;1.13;0.82;;;;;;;19.48;49.73;102706.44;5048755;28;20025;-74
2021/03/22 11:47:53;;;;;;;1.77;0.68;;;;;;;19.43;49.65;102700.25;5045431;28;20025;-73
2021/03/22 11:50:22;;;;;;;1.00;0.57;;;;;;;19.43;49.83;102709.00;5052147;28;20104;-73
2021/03/22 11:53:01;;;;;;;2.63;1.10;;;;;;;19.34;49.83;102694.81;5052423;28;20048;-74